Time;durP1;ratioP1;P1;durP2;ratioP2;P2;SDS_P1;SDS_P2;PMS_P1;PMS_P2;Temp;Humidity;BMP_temperature;BMP_pressure;BME280_temperature;BME280_humidity;BME280_pressure;Samples;Min_cycle;Max_cycle;Signal;HPM_P1;HPM_P2
2022/01/08 00:01:39;;;;;;;2.77;2.40;;;;;;;0.76;100.00;95029.78;5093126;28;20206;-74
2022/01/08 00:04:05;;;;;;;3.17;2.47;;;;;;;0.72;100.00;95015.50;5110337;28;20174;-76
2022/01/08 00:06:31;;;;;;;2.73;2.47;;;;;;;0.72;100.00;95020.09;5092856;28;20194;-76
2022/01/08 00:08:56;;;;;;;2.63;2.20;;;;;;;0.64;100.00;95010.31;5093066;28;20216;-67
2022/01/08 00:11:25;;;;;;;2.70;2.10;;;;;;;0.60;100.00;95010.25;5092841;28;20206;-63
2022/01/08 00:13:50;;;;;;;2.67;2.33;;;;;;;0.56;100.00;95003.22;5094128;28;20198;-66
2022/01/08 00:16:16;;;;;;;2.63;2.43;;;;;;;0.49;100.00;95014.59;5093007;28;20208;-65
2022/01/08 00:18:41;;;;;;;2.43;2.23;;;;;;;0.48;100.00;95018.41;5109982;28;20206;-65
2022/01/08 00:21:07;;;;;;;5.53;3.97;;;;;;;0.48;100.00;95012.25;5093182;28;20198;-65
2022/01/08 00:23:32;;;;;;;3.93;2.60;;;;;;;0.46;100.00;95011.81;5092820;28;20206;-65
2022/01/08 00:26:00;;;;;;;2.60;2.13;;;;;;;0.43;100.00;95005.22;5109479;28;20273;-65
2022/01/08 00:28:26;;;;;;;2.83;2.17;;;;;;;0.41;100.00;95002.13;5109402;28;20225;-61
2022/01/08 00:30:58;;;;;;;2.20;2.00;;;;;;;0.35;100.00;94998.13;5093819;28;20328;-72
2022/01/08 00:33:24;;;;;;;2.60;2.40;;;;;;;0.31;100.00;94989.22;5093046;28;20192;-71
2022/01/08 00:35:49;;;;;;;2.90;2.17;;;;;;;0.25;100.00;94987.16;5109215;28;20275;-72
2022/01/08 00:38:15;;;;;;;2.83;2.17;;;;;;;0.21;100.00;94984.38;5109211;28;20206;-71
2022/01/08 00:40:40;;;;;;;3.00;2.40;;;;;;;0.16;100.00;94990.00;5109861;28;20249;-72
2022/01/08 00:43:06;;;;;;;2.63;2.40;;;;;;;0.15;100.00;94985.00;5109605;28;20207;-72
2022/01/08 00:45:31;;;;;;;3.20;2.50;;;;;;;0.15;100.00;94987.69;5109756;28;20218;-71
2022/01/08 00:47:57;;;;;;;3.23;2.40;;;;;;;0.16;100.00;94975.81;5109489;28;20217;-75
2022/01/08 00:50:22;;;;;;;3.13;2.63;;;;;;;0.16;100.00;94976.59;5092272;28;20202;-61
2022/01/08 00:52:48;;;;;;;3.03;2.40;;;;;;;0.12;100.00;94973.06;5092378;28;20206;-61
2022/01/08 00:55:13;;;;;;;3.00;2.33;;;;;;;0.09;100.00;94968.38;5109507;28;20547;-61
2022/01/08 00:57:38;;;;;;;4.63;2.77;;;;;;;0.05;100.00;94970.19;5092305;28;20236;-61
2022/01/08 01:00:07;;;;;;;3.27;2.53;;;;;;;0.01;100.00;94966.66;5109452;28;20247;-61
2022/01/08 01:02:32;;;;;;;3.53;2.63;;;;;;;-0.04;100.00;94964.22;5092567;28;20242;-61
2022/01/08 01:04:57;;;;;;;3.03;2.70;;;;;;;-0.09;100.00;94962.59;5092600;28;20201;-62
2022/01/08 01:07:23;;;;;;;4.20;3.13;;;;;;;-0.12;100.00;94960.59;5109808;28;20253;-69
2022/01/08 01:09:48;;;;;;;3.53;3.03;;;;;;;-0.18;100.00;94953.16;5095743;28;20200;-71
2022/01/08 01:12:14;;;;;;;5.57;3.47;;;;;;;-0.21;100.00;94941.19;5112089;28;20554;-69
2022/01/08 01:14:40;;;;;;;6.87;3.37;;;;;;;-0.25;100.00;94944.94;5095339;28;20542;-69
2022/01/08 01:17:05;;;;;;;5.67;3.63;;;;;;;-0.29;100.00;94936.03;5112644;28;20265;-72
2022/01/08 01:19:31;;;;;;;4.30;3.13;;;;;;;-0.32;100.00;94937.47;5112794;28;20668;-69
2022/01/08 01:21:59;;;;;;;5.63;2.93;;;;;;;-0.39;100.00;94926.56;5112469;28;20189;-69
2022/01/08 01:24:25;;;;;;;3.17;2.63;;;;;;;-0.44;100.00;94923.34;5095313;28;20247;-60
2022/01/08 01:29:55;;;;;;;2.57;2.37;;;;;;;-0.54;100.00;94913.91;5096524;28;20212;-62
2022/01/08 01:43:25;;;;;;;2.93;2.40;;;;;;;-0.88;100.00;94903.84;5096354;28;20341;-73
2022/01/08 01:48:34;;;;;;;3.00;2.37;;;;;;;-1.01;100.00;94894.34;5096216;28;20227;-65
2022/01/08 01:51:00;;;;;;;2.80;2.50;;;;;;;-1.04;100.00;94886.19;5095085;28;20196;-65
2022/01/08 01:53:25;;;;;;;4.53;2.80;;;;;;;-1.11;100.00;94888.66;5112046;28;20266;-65
2022/01/08 01:55:51;;;;;;;3.47;2.50;;;;;;;-1.12;100.00;94881.75;5111883;28;20197;-66
2022/01/08 01:58:17;;;;;;;3.53;2.70;;;;;;;-1.16;100.00;94880.88;5111857;28;20200;-65
2022/01/08 02:00:43;;;;;;;3.23;2.57;;;;;;;-1.19;100.00;94870.84;5095390;28;20283;-60
2022/01/08 02:03:09;;;;;;;3.70;2.90;;;;;;;-1.23;100.00;94859.28;5111947;28;20280;-66
2022/01/08 02:05:34;;;;;;;4.80;3.00;;;;;;;-1.27;100.00;94863.75;5112185;28;20567;-65
2022/01/08 02:08:00;;;;;;;3.90;3.47;;;;;;;-1.33;100.00;94854.41;5111549;28;20219;-65
2022/01/08 02:10:25;;;;;;;4.07;3.00;;;;;;;-1.36;100.00;94855.09;5094452;28;20193;-64
2022/01/08 02:12:51;;;;;;;3.57;2.80;;;;;;;-1.38;100.00;94857.34;5094939;28;20208;-65
2022/01/08 02:15:16;;;;;;;3.40;2.53;;;;;;;-1.41;100.00;94849.97;5111563;28;20204;-65
2022/01/08 02:17:42;;;;;;;3.87;2.43;;;;;;;-1.46;100.00;94844.88;5111400;28;20204;-68
2022/01/08 02:20:08;;;;;;;3.87;2.60;;;;;;;-1.52;100.00;94841.66;5110919;28;20227;-61
2022/01/08 02:22:34;;;;;;;2.63;2.40;;;;;;;-1.54;100.00;94843.09;5111910;28;20212;-60
2022/01/08 02:24:59;;;;;;;3.83;2.47;;;;;;;-1.63;100.00;94837.13;5111334;28;20192;-60
2022/01/08 02:27:25;;;;;;;3.23;2.30;;;;;;;-1.70;100.00;94835.03;5094163;28;20211;-59
2022/01/08 02:29:50;;;;;;;5.90;2.60;;;;;;;-1.77;100.00;94831.38;5111113;28;20220;-60
2022/01/08 02:32:19;;;;;;;3.13;2.40;;;;;;;-1.83;100.00;94825.47;5111491;28;20214;-60
2022/01/08 02:34:47;;;;;;;3.40;2.60;;;;;;;-1.85;100.00;94816.25;5111398;28;20196;-62
2022/01/08 02:37:14;;;;;;;2.80;2.40;;;;;;;-1.90;100.00;94811.13;5094110;28;20176;-60
2022/01/08 02:39:42;;;;;;;3.10;2.47;;;;;;;-1.95;100.00;94817.50;5110919;28;20637;-59
2022/01/08 02:42:13;;;;;;;2.73;2.40;;;;;;;-1.94;100.00;94807.56;5111473;28;20204;-60
2022/01/08 02:44:43;;;;;;;5.00;2.60;;;;;;;-1.97;100.00;94802.91;5094599;28;20200;-59
2022/01/08 02:47:10;;;;;;;2.37;2.17;;;;;;;-2.00;100.00;94790.97;5093752;28;20295;-60
2022/01/08 02:49:36;;;;;;;2.70;2.30;;;;;;;-2.04;100.00;94786.66;5094037;28;20557;-59
2022/01/08 02:52:03;;;;;;;4.53;2.90;;;;;;;-2.09;100.00;94789.56;5094034;28;20196;-60
2022/01/08 02:54:28;;;;;;;2.77;2.30;;;;;;;-2.13;100.00;94780.66;5111086;28;20196;-67
2022/01/08 02:56:54;;;;;;;3.83;2.60;;;;;;;-2.17;100.00;94777.09;5094050;28;20514;-65
2022/01/08 02:59:19;;;;;;;4.77;2.23;;;;;;;-2.25;100.00;94773.44;5111066;28;20197;-60
2022/01/08 03:01:45;;;;;;;2.40;2.00;;;;;;;-2.29;100.00;94785.16;5111287;28;20268;-63
2022/01/08 03:04:11;;;;;;;2.53;2.27;;;;;;;-2.36;100.00;94764.34;5094204;28;20230;-60
2022/01/08 03:06:37;;;;;;;2.23;2.00;;;;;;;-2.40;100.00;94765.34;5111089;28;20208;-62
2022/01/08 03:09:03;;;;;;;4.27;2.53;;;;;;;-2.40;100.00;94768.81;5110509;28;20211;-61
2022/01/08 03:11:28;;;;;;;4.57;2.20;;;;;;;-2.40;100.00;94757.31;5094150;28;20199;-61
2022/01/08 03:13:54;;;;;;;3.23;2.60;;;;;;;-2.44;100.00;94751.09;5111219;28;20200;-59
2022/01/08 03:16:19;;;;;;;4.20;2.60;;;;;;;-2.46;100.00;94747.97;5110860;28;20204;-65
2022/01/08 03:18:47;;;;;;;2.60;2.37;;;;;;;-2.43;100.00;94744.63;5110496;28;20218;-66
2022/01/08 03:21:15;;;;;;;3.20;2.60;;;;;;;-2.47;100.00;94735.75;5110335;28;20223;-67
2022/01/08 03:23:52;;;;;;;3.37;2.40;;;;;;;-2.50;100.00;94731.06;5093580;28;20240;-66
2022/01/08 03:26:19;;;;;;;4.83;2.80;;;;;;;-2.53;100.00;94731.72;5093458;28;20188;-66
2022/01/08 03:28:45;;;;;;;3.57;2.30;;;;;;;-2.56;100.00;94743.13;5093504;28;20212;-66
2022/01/08 03:31:12;;;;;;;3.73;2.80;;;;;;;-2.58;100.00;94730.09;5092191;28;20173;-71
2022/01/08 03:33:37;;;;;;;3.67;2.40;;;;;;;-2.59;100.00;94733.09;5094244;28;20196;-69
2022/01/08 03:36:04;;;;;;;2.50;2.30;;;;;;;-2.60;100.00;94736.88;5093154;28;20253;-70
2022/01/08 03:38:30;;;;;;;3.40;2.00;;;;;;;-2.63;100.00;94716.19;5093216;28;20687;-72
2022/01/08 03:40:55;;;;;;;2.70;2.03;;;;;;;-2.64;100.00;94714.59;5092903;28;20193;-74
2022/01/08 03:43:21;;;;;;;4.53;2.60;;;;;;;-2.64;100.00;94704.72;5109984;28;20280;-74
2022/01/08 03:45:46;;;;;;;3.23;2.30;;;;;;;-2.61;100.00;94708.59;5110493;28;20256;-69
2022/01/08 03:48:26;;;;;;;4.20;2.23;;;;;;;-2.60;100.00;94718.16;5109960;28;20240;-69
2022/01/08 03:50:52;;;;;;;3.07;2.30;;;;;;;-2.61;100.00;94706.72;5110333;28;20188;-68
2022/01/08 03:53:17;;;;;;;2.47;1.97;;;;;;;-2.62;100.00;94697.13;5093417;28;20743;-68
2022/01/08 03:55:43;;;;;;;3.80;2.20;;;;;;;-2.62;100.00;94693.69;5093351;28;20212;-69
2022/01/08 03:58:08;;;;;;;3.50;2.20;;;;;;;-2.60;100.00;94694.13;5110147;28;20305;-70
2022/01/08 04:00:34;;;;;;;2.97;2.40;;;;;;;-2.56;100.00;94701.13;5110327;28;20199;-69
2022/01/08 04:03:00;;;;;;;3.00;2.13;;;;;;;-2.54;100.00;94687.44;5093384;28;20192;-69
2022/01/08 04:05:25;;;;;;;2.30;2.00;;;;;;;-2.51;100.00;94692.09;5109719;28;20200;-69
2022/01/08 04:07:51;;;;;;;2.93;2.10;;;;;;;-2.55;100.00;94680.53;5109650;28;20197;-60
2022/01/08 04:10:16;;;;;;;2.33;1.93;;;;;;;-2.56;100.00;94679.00;5092872;28;20236;-60
2022/01/08 04:12:49;;;;;;;2.77;2.17;;;;;;;-2.57;100.00;94678.22;5109981;28;20222;-63
2022/01/08 04:15:33;;;;;;;2.23;2.00;;;;;;;-2.56;100.00;94673.66;5110246;28;20214;-59
2022/01/08 04:17:59;;;;;;;2.80;2.17;;;;;;;-2.54;100.00;94671.41;5110307;28;20287;-58
2022/01/08 04:20:24;;;;;;;2.33;1.80;;;;;;;-2.58;100.00;94665.97;5093007;28;20231;-59
2022/01/08 04:22:51;;;;;;;2.47;2.00;;;;;;;-2.56;100.00;94670.97;5093884;28;20754;-58
2022/01/08 04:25:19;;;;;;;2.13;1.93;;;;;;;-2.61;100.00;94661.31;5093702;28;20748;-58
2022/01/08 04:27:44;;;;;;;2.57;1.90;;;;;;;-2.62;100.00;94659.72;5092846;28;20669;-58
2022/01/08 04:30:10;;;;;;;3.00;1.80;;;;;;;-2.63;100.00;94652.06;5092717;28;20265;-68
2022/01/08 04:32:35;;;;;;;2.43;1.80;;;;;;;-2.64;100.00;94653.97;5109735;28;20188;-66
2022/01/08 04:35:01;;;;;;;2.57;1.80;;;;;;;-2.63;100.00;94646.72;5109762;28;20224;-67
2022/01/08 04:37:27;;;;;;;2.00;1.60;;;;;;;-2.60;100.00;94640.69;5092774;28;20252;-69
2022/01/08 04:39:52;;;;;;;2.03;1.43;;;;;;;-2.57;100.00;94640.03;5092493;28;20250;-70
2022/01/08 04:42:17;;;;;;;1.67;1.57;;;;;;;-2.54;100.00;94640.13;5092201;28;20193;-66
2022/01/08 04:44:43;;;;;;;2.13;1.60;;;;;;;-2.51;100.00;94644.03;5113068;28;20228;-61
2022/01/08 04:47:08;;;;;;;2.37;1.67;;;;;;;-2.47;100.00;94639.56;5113065;28;20653;-65
2022/01/08 04:49:34;;;;;;;1.80;1.70;;;;;;;-2.43;100.00;94632.41;5113402;28;20192;-65
2022/01/08 04:51:59;;;;;;;1.60;1.50;;;;;;;-2.40;100.00;94629.06;5095897;28;20192;-66
2022/01/08 04:54:25;;;;;;;1.50;1.23;;;;;;;-2.35;100.00;94636.81;5112657;28;20168;-65
2022/01/08 04:56:50;;;;;;;3.20;1.63;;;;;;;-2.30;100.00;94628.59;5095890;28;20224;-65
2022/01/08 04:59:16;;;;;;;1.60;1.50;;;;;;;-2.19;100.00;94635.00;5095764;28;20617;-65
2022/01/08 05:01:43;;;;;;;1.80;1.50;;;;;;;-2.12;100.00;94637.84;5095744;28;20227;-65
2022/01/08 05:04:08;;;;;;;2.17;1.43;;;;;;;-2.05;100.00;94643.38;5096140;28;20203;-69
2022/01/08 05:06:34;;;;;;;2.73;1.33;;;;;;;-2.00;100.00;94645.81;5112742;28;20198;-65
2022/01/08 05:08:59;;;;;;;1.33;1.20;;;;;;;-1.95;100.00;94656.25;5112673;28;20236;-65
2022/01/08 05:11:27;;;;;;;2.60;1.27;;;;;;;-1.86;100.00;94670.25;5112497;28;20224;-66
2022/01/08 05:13:54;;;;;;;1.30;1.20;;;;;;;-1.79;100.00;94668.53;5112379;28;20200;-66
2022/01/08 05:16:19;;;;;;;2.63;1.20;;;;;;;-1.71;100.00;94693.56;5095617;28;20250;-66
2022/01/08 05:18:46;;;;;;;1.80;1.30;;;;;;;-1.60;100.00;94718.72;5095645;28;20188;-65
2022/01/08 05:21:25;;;;;;;1.20;1.10;;;;;;;-1.49;100.00;94701.78;5113130;28;20196;-59
2022/01/08 05:23:52;;;;;;;1.20;1.10;;;;;;;-1.41;100.00;94710.78;5113136;28;20241;-60
2022/01/08 05:26:17;;;;;;;1.80;1.37;;;;;;;-1.32;100.00;94684.63;5095397;28;20214;-70
2022/01/08 05:28:44;;;;;;;2.27;1.33;;;;;;;-1.25;100.00;94684.78;5095169;28;20208;-70
2022/01/08 05:31:10;;;;;;;2.80;1.20;;;;;;;-1.16;100.00;94688.09;5095197;28;20196;-70
2022/01/08 05:33:36;;;;;;;1.50;1.30;;;;;;;-1.12;100.00;94673.66;5111924;28;20189;-69
2022/01/08 05:36:01;;;;;;;1.10;1.00;;;;;;;-1.07;100.00;94675.28;5112587;28;20188;-70
2022/01/08 05:38:26;;;;;;;1.93;1.57;;;;;;;-1.04;100.00;94674.59;5095173;28;20197;-69
2022/01/08 05:40:52;;;;;;;1.40;1.23;;;;;;;-1.01;100.00;94680.06;5112300;28;20216;-59
2022/01/08 05:43:17;;;;;;;1.60;1.37;;;;;;;-0.97;100.00;94685.47;5112176;28;20217;-60
2022/01/08 05:45:42;;;;;;;1.77;1.40;;;;;;;-0.96;100.00;94670.94;5112164;28;20196;-59
2022/01/08 05:48:09;;;;;;;2.17;1.33;;;;;;;-0.96;100.00;94677.09;5112157;28;20216;-59
2022/01/08 05:50:34;;;;;;;1.47;1.17;;;;;;;-0.99;100.00;94674.31;5112227;28;20651;-60
2022/01/08 05:52:59;;;;;;;1.70;1.20;;;;;;;-0.98;100.00;94673.22;5112343;28;20227;-59
2022/01/08 05:55:25;;;;;;;1.27;1.10;;;;;;;-0.97;100.00;94680.91;5111586;28;20200;-58
2022/01/08 05:57:50;;;;;;;2.43;1.30;;;;;;;-0.93;100.00;94680.97;5112195;28;20281;-68
2022/01/08 06:00:16;;;;;;;1.20;1.10;;;;;;;-0.91;100.00;94684.84;5112338;28;20200;-59
2022/01/08 06:02:41;;;;;;;3.90;1.57;;;;;;;-0.83;100.00;94696.53;5111990;28;20201;-62
2022/01/08 06:05:07;;;;;;;7.13;6.40;;;;;;;-0.76;100.00;94699.38;5111499;28;20204;-61
2022/01/08 06:07:33;;;;;;;1.47;1.33;;;;;;;-0.72;100.00;94703.66;5094644;28;20216;-60
2022/01/08 06:09:59;;;;;;;1.87;1.13;;;;;;;-0.64;100.00;94699.25;5094570;28;20257;-64
2022/01/08 06:12:24;;;;;;;1.20;0.90;;;;;;;-0.52;100.00;94696.44;5111641;28;20251;-61
2022/01/08 06:14:50;;;;;;;2.27;1.00;;;;;;;-0.46;100.00;94689.69;5111542;28;20205;-62
2022/01/08 06:17:15;;;;;;;0.77;0.77;;;;;;;-0.43;100.00;94689.00;5111621;28;20284;-60
2022/01/08 06:19:40;;;;;;;1.70;0.90;;;;;;;-0.43;100.00;94678.28;5112097;28;20237;-59
2022/01/08 06:22:06;;;;;;;1.20;1.10;;;;;;;-0.44;100.00;94676.69;5094842;28;20196;-61
2022/01/08 06:24:31;;;;;;;2.20;0.97;;;;;;;-0.43;100.00;94675.59;5111830;28;20213;-60
2022/01/08 06:26:56;;;;;;;1.47;0.97;;;;;;;-0.38;100.00;94669.94;5094834;28;20223;-59
2022/01/08 06:29:22;;;;;;;0.83;0.83;;;;;;;-0.39;100.00;94679.88;5111834;28;20213;-61
2022/01/08 06:31:48;;;;;;;2.47;1.10;;;;;;;-0.33;100.00;94672.34;5111800;28;20208;-60
2022/01/08 06:34:13;;;;;;;1.07;0.97;;;;;;;-0.32;100.00;94676.59;5111197;28;20217;-63
2022/01/08 06:36:39;;;;;;;1.70;1.10;;;;;;;-0.25;100.00;94674.06;5111526;28;20605;-73
2022/01/08 06:39:04;;;;;;;2.47;1.30;;;;;;;-0.25;100.00;94676.75;5111677;28;20289;-60
2022/01/08 06:41:29;;;;;;;1.63;1.10;;;;;;;-0.20;100.00;94687.19;5111014;28;20209;-62
2022/01/08 06:43:56;;;;;;;2.73;1.00;;;;;;;-0.17;100.00;94678.44;5094109;28;20207;-62
2022/01/08 06:46:22;;;;;;;1.67;1.10;;;;;;;-0.13;100.00;94680.06;5094007;28;20197;-62
2022/01/08 06:48:47;;;;;;;1.40;1.00;;;;;;;-0.09;100.00;94682.81;5093986;28;20217;-61
2022/01/08 06:51:12;;;;;;;1.10;0.90;;;;;;;-0.06;100.00;94682.09;5111183;28;20201;-61
2022/01/08 06:53:38;;;;;;;1.07;0.90;;;;;;;0.03;100.00;94672.72;5093947;28;20212;-68
2022/01/08 06:56:04;;;;;;;1.60;1.00;;;;;;;0.14;100.00;94680.94;5110683;28;20174;-59
2022/01/08 06:58:29;;;;;;;1.27;0.90;;;;;;;0.14;100.00;94667.53;5111068;28;20197;-59
2022/01/08 07:00:55;;;;;;;0.80;0.80;;;;;;;0.20;100.00;94674.16;5094246;28;20539;-59
2022/01/08 07:03:20;;;;;;;0.87;0.70;;;;;;;0.18;100.00;94687.16;5110951;28;20654;-59
2022/01/08 07:05:45;;;;;;;2.37;1.30;;;;;;;0.19;100.00;94687.94;5111199;28;20230;-59
2022/01/08 07:08:11;;;;;;;1.13;0.80;;;;;;;0.28;100.00;94683.16;5110448;28;20295;-60
2022/01/08 07:10:37;;;;;;;0.93;0.70;;;;;;;0.32;100.00;94695.47;5110715;28;20206;-60
2022/01/08 07:13:02;;;;;;;2.20;1.40;;;;;;;0.34;100.00;94695.13;5110676;28;20212;-60
2022/01/08 07:15:28;;;;;;;1.57;1.00;;;;;;;0.35;100.00;94696.69;5093420;28;20232;-60
2022/01/08 07:17:53;;;;;;;1.40;1.10;;;;;;;0.37;100.00;94700.59;5110757;28;20210;-60
2022/01/08 07:20:19;;;;;;;2.23;0.93;;;;;;;0.41;100.00;94711.38;5094022;28;20202;-59
2022/01/08 07:22:44;;;;;;;0.83;0.83;;;;;;;0.40;100.00;94713.28;5110765;28;20209;-60
2022/01/08 07:25:10;;;;;;;2.37;0.83;;;;;;;0.44;100.00;94719.50;5110495;28;20276;-60
2022/01/08 07:27:36;;;;;;;0.80;0.77;;;;;;;0.45;100.00;94723.75;5110537;28;20229;-60
2022/01/08 07:30:04;;;;;;;1.17;0.87;;;;;;;0.48;100.00;94725.72;5093628;28;20217;-62
2022/01/08 07:32:30;;;;;;;1.23;0.90;;;;;;;0.56;100.00;94730.09;5110208;28;20264;-63
2022/01/08 07:34:55;;;;;;;0.80;0.80;;;;;;;0.61;100.00;94737.09;5110540;28;20225;-69
2022/01/08 07:37:21;;;;;;;2.80;0.90;;;;;;;0.74;100.00;94736.56;5093121;28;20232;-69
2022/01/08 07:39:46;;;;;;;0.80;0.70;;;;;;;0.82;100.00;94722.09;5110166;28;20284;-79
2022/01/08 07:42:11;;;;;;;0.70;0.70;;;;;;;0.86;100.00;94719.47;5110314;28;20202;-71
2022/01/08 07:44:36;;;;;;;3.27;1.20;;;;;;;0.92;100.00;94723.41;5110339;28;20197;-70
2022/01/08 07:47:02;;;;;;;2.13;1.30;;;;;;;0.93;100.00;94725.75;5093171;28;20195;-70
2022/01/08 07:49:28;;;;;;;5.20;1.50;;;;;;;0.95;100.00;94722.72;5110594;28;20613;-64
2022/01/08 07:51:53;;;;;;;1.33;0.90;;;;;;;0.98;100.00;94736.19;5110618;28;20314;-67
2022/01/08 07:54:18;;;;;;;0.77;0.77;;;;;;;1.05;100.00;94735.56;5093056;28;20279;-71
2022/01/08 07:56:44;;;;;;;2.23;1.10;;;;;;;1.08;100.00;94724.06;5109845;28;20183;-73
2022/01/08 07:59:09;;;;;;;0.77;0.60;;;;;;;1.11;100.00;94724.13;5093860;28;20190;-74
2022/01/08 08:01:34;;;;;;;1.27;0.90;;;;;;;1.09;100.00;94721.00;5110496;28;20197;-77
2022/01/08 08:04:00;;;;;;;2.70;1.83;;;;;;;1.09;100.00;94725.63;5109976;28;20228;-69
2022/01/08 08:06:25;;;;;;;2.73;1.40;;;;;;;1.11;100.00;94726.03;5109821;28;20202;-64
2022/01/08 08:08:50;;;;;;;2.10;0.97;;;;;;;1.19;100.00;94725.78;5109642;28;20233;-65
2022/01/08 08:11:16;;;;;;;1.40;0.93;;;;;;;1.20;100.00;94724.66;5109715;28;20200;-63
2022/01/08 08:13:41;;;;;;;0.93;0.83;;;;;;;1.26;100.00;94731.28;5109762;28;20194;-62
2022/01/08 08:16:07;;;;;;;1.27;0.90;;;;;;;1.23;100.00;94720.47;5109649;28;20217;-62
2022/01/08 08:18:33;;;;;;;0.90;0.77;;;;;;;1.25;100.00;94732.44;5111672;28;20207;-63
2022/01/08 08:20:58;;;;;;;1.47;1.23;;;;;;;1.28;100.00;94729.03;5113400;28;20199;-63
2022/01/08 08:23:23;;;;;;;1.87;1.00;;;;;;;1.33;100.00;94741.38;5096460;28;20193;-64
2022/01/08 08:25:49;;;;;;;1.50;1.10;;;;;;;1.38;100.00;94739.16;5097016;28;20195;-60
2022/01/08 08:28:14;;;;;;;0.90;0.80;;;;;;;1.44;100.00;94737.72;5113204;28;20193;-61
2022/01/08 08:30:40;;;;;;;0.80;0.70;;;;;;;1.51;100.00;94751.28;5113607;28;20288;-65
2022/01/08 08:33:05;;;;;;;0.83;0.70;;;;;;;1.67;100.00;94746.50;5112855;28;20196;-65
2022/01/08 08:35:32;;;;;;;0.83;0.67;;;;;;;1.85;100.00;94742.16;5113122;28;20202;-63
2022/01/08 08:37:57;;;;;;;0.90;0.73;;;;;;;1.97;100.00;94733.09;5113173;28;20196;-64
2022/01/08 08:40:22;;;;;;;0.80;0.80;;;;;;;2.13;100.00;94742.53;5095826;28;20210;-65
2022/01/08 08:42:47;;;;;;;1.97;0.83;;;;;;;2.30;100.00;94736.59;5112821;28;20208;-67
2022/01/08 08:45:13;;;;;;;1.13;0.60;;;;;;;2.40;100.00;94748.63;5112916;28;20196;-69
2022/01/08 08:47:40;;;;;;;1.03;0.80;;;;;;;2.47;100.00;94754.88;5096467;28;20218;-71
2022/01/08 08:50:07;;;;;;;1.70;0.70;;;;;;;2.49;100.00;94755.31;5095728;28;20231;-73
2022/01/08 08:52:33;;;;;;;1.10;0.80;;;;;;;2.32;100.00;94761.25;5095757;28;20203;-73
2022/01/08 08:54:58;;;;;;;0.60;0.60;;;;;;;2.21;100.00;94765.72;5113028;28;20207;-76
2022/01/08 08:57:24;;;;;;;0.50;0.50;;;;;;;2.10;100.00;94774.78;5112442;28;20297;-72
2022/01/08 08:59:49;;;;;;;1.10;0.70;;;;;;;2.02;100.00;94773.94;5113299;28;20191;-72
2022/01/08 09:02:15;;;;;;;1.40;1.07;;;;;;;2.02;100.00;94781.22;5112968;28;20200;-72
2022/01/08 09:04:41;;;;;;;1.10;0.80;;;;;;;2.11;100.00;94765.59;5113414;28;20276;-71
2022/01/08 09:07:07;;;;;;;1.77;0.90;;;;;;;2.20;100.00;94768.78;5112933;28;20591;-71
2022/01/08 09:09:32;;;;;;;3.03;1.10;;;;;;;2.15;100.00;94783.31;5112800;28;20256;-71
2022/01/08 09:11:58;;;;;;;0.77;0.77;;;;;;;2.22;100.00;94771.91;5095819;28;20195;-70
2022/01/08 09:14:23;;;;;;;1.50;1.20;;;;;;;2.22;100.00;94796.88;5095378;28;20225;-68
2022/01/08 09:16:52;;;;;;;1.80;0.83;;;;;;;2.25;100.00;94788.09;5112422;28;20278;-70
2022/01/08 09:19:18;;;;;;;1.00;0.90;;;;;;;2.23;100.00;94817.28;5095461;28;20295;-71
2022/01/08 09:21:44;;;;;;;0.80;0.80;;;;;;;2.25;100.00;94815.00;5095656;28;20305;-72
2022/01/08 09:24:10;;;;;;;1.70;1.17;;;;;;;2.30;100.00;94824.72;5095550;28;20268;-66
2022/01/08 09:26:36;;;;;;;9.30;5.73;;;;;;;2.42;100.00;94836.03;5112358;28;20199;-65
2022/01/08 09:29:01;;;;;;;2.67;0.93;;;;;;;2.75;100.00;94822.59;5094735;28;20212;-66
2022/01/08 09:31:26;;;;;;;1.20;0.80;;;;;;;3.34;100.00;94827.84;5112193;28;20207;-66
2022/01/08 09:33:52;;;;;;;1.37;0.80;;;;;;;3.68;100.00;94847.44;5112668;28;20203;-65
2022/01/08 09:36:17;;;;;;;1.73;0.83;;;;;;;3.70;100.00;94858.63;5112203;28;20230;-66
2022/01/08 09:38:43;;;;;;;1.00;0.80;;;;;;;4.46;100.00;94851.47;5095193;28;20197;-67
2022/01/08 09:41:09;;;;;;;1.07;0.90;;;;;;;4.43;100.00;94863.03;5094908;28;20207;-68
2022/01/08 09:43:35;;;;;;;2.23;1.00;;;;;;;4.10;100.00;94879.41;5094901;28;20188;-77
2022/01/08 09:46:01;;;;;;;0.83;0.70;;;;;;;3.72;100.00;94879.88;5111603;28;20192;-77
2022/01/08 09:48:26;;;;;;;1.73;0.80;;;;;;;3.35;100.00;94869.88;5094759;28;20203;-77
2022/01/08 09:50:52;;;;;;;1.30;1.00;;;;;;;3.29;100.00;94894.84;5095052;28;20241;-76
2022/01/08 09:53:17;;;;;;;0.70;0.70;;;;;;;3.21;100.00;94904.78;5095055;28;20188;-78
2022/01/08 09:55:42;;;;;;;1.73;0.90;;;;;;;2.95;100.00;94902.16;5094930;28;20196;-75
2022/01/08 09:58:09;;;;;;;0.97;0.63;;;;;;;2.89;100.00;94906.34;5112249;28;20196;-70
2022/01/08 10:00:36;;;;;;;1.43;0.80;;;;;;;2.83;100.00;94915.88;5112264;28;20208;-76
2022/01/08 10:03:15;;;;;;;0.80;0.80;;;;;;;2.82;100.00;94929.72;5112258;28;20608;-74
2022/01/08 10:05:50;;;;;;;1.50;0.90;;;;;;;2.75;100.00;94919.63;5094519;28;20192;-73
2022/01/08 10:08:22;;;;;;;2.10;1.60;;;;;;;2.74;100.00;94928.84;5111277;28;20239;-74
2022/01/08 10:11:06;;;;;;;1.93;1.57;;;;;;;2.77;100.00;94928.09;5111679;28;20192;-78
2022/01/08 10:13:39;;;;;;;1.53;1.00;;;;;;;2.78;100.00;94939.69;5095235;28;20237;-77
2022/01/08 10:18:54;;;;;;;1.00;1.00;;;;;;;2.91;100.00;94939.09;5095901;28;20664;-62
2022/01/08 10:21:25;;;;;;;2.67;1.10;;;;;;;2.90;100.00;94953.72;5094316;28;20204;-62
2022/01/08 10:23:59;;;;;;;1.03;0.93;;;;;;;2.89;100.00;94957.56;5094828;28;20203;-64
2022/01/08 10:26:32;;;;;;;1.00;0.97;;;;;;;2.96;100.00;94963.03;5094495;28;20207;-64
2022/01/08 10:29:12;;;;;;;1.10;1.00;;;;;;;2.89;100.00;94965.66;5094564;28;20208;-64
2022/01/08 10:31:41;;;;;;;1.20;1.00;;;;;;;2.76;100.00;94971.59;5111239;28;20215;-63
2022/01/08 10:34:11;;;;;;;1.20;1.10;;;;;;;2.85;100.00;94972.13;5094975;28;20188;-69
2022/01/08 10:36:38;;;;;;;3.13;1.67;;;;;;;2.88;100.00;94985.63;5111690;28;20187;-65
2022/01/08 10:39:12;;;;;;;1.83;1.30;;;;;;;2.97;100.00;94980.78;5111305;28;20205;-64
2022/01/08 10:41:42;;;;;;;1.70;1.40;;;;;;;3.03;100.00;94976.59;5110685;28;20199;-63
2022/01/08 10:44:11;;;;;;;1.23;1.13;;;;;;;3.04;100.00;94996.25;5093845;28;20208;-61
2022/01/08 10:46:38;;;;;;;1.37;1.23;;;;;;;3.13;100.00;94999.44;5094189;28;20188;-60
2022/01/08 10:49:04;;;;;;;1.43;1.30;;;;;;;3.47;100.00;95004.53;5111128;28;20219;-61
2022/01/08 10:51:38;;;;;;;2.53;1.30;;;;;;;3.58;100.00;95004.66;5094186;28;20193;-70
2022/01/08 10:54:08;;;;;;;1.80;1.50;;;;;;;3.83;100.00;95010.34;5111056;28;20196;-61
2022/01/08 10:56:35;;;;;;;1.50;1.40;;;;;;;3.94;100.00;95011.22;5111197;28;20232;-61
2022/01/08 10:59:21;;;;;;;1.30;1.13;;;;;;;4.18;100.00;95011.47;5110620;28;20191;-63
2022/01/08 11:01:50;;;;;;;3.63;2.00;;;;;;;4.30;100.00;95015.84;5111300;28;20215;-63
2022/01/08 11:04:36;;;;;;;2.10;1.70;;;;;;;4.22;100.00;95012.28;5111182;28;20212;-67
2022/01/08 11:07:15;;;;;;;2.53;1.83;;;;;;;4.19;100.00;95012.25;5094042;28;20222;-63
2022/01/08 11:09:42;;;;;;;3.60;1.60;;;;;;;4.08;100.00;95005.97;5094458;28;20197;-62
2022/01/08 11:12:14;;;;;;;1.43;1.20;;;;;;;3.84;100.00;95003.78;5111193;28;20186;-60
2022/01/08 11:15:02;;;;;;;1.43;1.33;;;;;;;3.65;100.00;95010.16;5095092;28;20183;-61
2022/01/08 11:17:33;;;;;;;1.30;1.20;;;;;;;3.47;100.00;95019.97;5110930;28;20261;-61
2022/01/08 11:20:07;;;;;;;1.60;1.50;;;;;;;3.27;100.00;95032.81;5093152;28;20207;-64
2022/01/08 11:22:34;;;;;;;1.50;1.40;;;;;;;3.20;100.00;95024.63;5094011;28;20201;-61
2022/01/08 11:25:07;;;;;;;2.30;1.40;;;;;;;3.02;100.00;95031.69;5094504;28;20200;-63
2022/01/08 11:27:51;;;;;;;1.70;1.60;;;;;;;3.06;100.00;95032.50;5094714;28;20334;-64
2022/01/08 11:30:20;;;;;;;2.40;1.63;;;;;;;3.26;100.00;95039.34;5092978;28;20205;-68
2022/01/08 11:32:50;;;;;;;1.70;1.40;;;;;;;3.40;100.00;95023.31;5093316;28;20219;-64
2022/01/08 11:35:17;;;;;;;2.27;1.53;;;;;;;3.53;100.00;95028.50;5110411;28;20211;-61
2022/01/08 11:37:46;;;;;;;2.00;1.63;;;;;;;3.45;100.00;95028.41;5093347;28;20301;-62
2022/01/08 11:40:13;;;;;;;1.87;1.50;;;;;;;3.27;100.00;95022.00;5109804;28;20211;-62
2022/01/08 11:42:40;;;;;;;2.33;2.00;;;;;;;3.33;100.00;95036.75;5092800;28;20283;-61
2022/01/08 11:45:09;;;;;;;2.20;2.00;;;;;;;3.53;100.00;95025.81;5109993;28;20201;-61
2022/01/08 11:47:34;;;;;;;3.77;2.90;;;;;;;3.65;100.00;95030.97;5093039;28;20228;-62